Time;durP1;ratioP1;P1;durP2;ratioP2;P2;SDS_P1;SDS_P2;PMS_P1;PMS_P2;Temp;Humidity;BMP_temperature;BMP_pressure;BME280_temperature;BME280_humidity;BME280_pressure;Samples;Min_cycle;Max_cycle;Signal;HPM_P1;HPM_P2
2021/10/17 00:01:04;;;;;;;32.70;21.63;;;;;;;11.16;100.00;101608.25;4960206;28;20031;-76
2021/10/17 00:03:50;;;;;;;33.15;22.05;;;;;;;11.61;100.00;101600.13;4960282;28;20062;-76
2021/10/17 00:06:36;;;;;;;30.65;20.35;;;;;;;11.29;100.00;101596.84;4960148;28;20184;-77
2021/10/17 00:09:21;;;;;;;31.13;20.75;;;;;;;11.25;100.00;101595.97;4960287;28;20048;-77
2021/10/17 00:12:10;;;;;;;34.35;22.35;;;;;;;11.28;100.00;101603.81;4960246;28;20031;-76
2021/10/17 00:14:56;;;;;;;33.75;22.25;;;;;;;10.93;100.00;101603.13;4960172;28;20063;-77
2021/10/17 00:17:43;;;;;;;35.17;23.80;;;;;;;11.21;100.00;101603.88;4958837;28;20035;-77
2021/10/17 00:20:29;;;;;;;37.90;23.40;;;;;;;11.15;100.00;101596.91;4958875;28;20086;-76
2021/10/17 00:23:14;;;;;;;34.95;22.67;;;;;;;11.01;100.00;101598.72;4960444;28;20042;-76
2021/10/17 00:26:00;;;;;;;37.03;23.27;;;;;;;11.18;100.00;101598.66;4959682;28;20031;-76
2021/10/17 00:28:46;;;;;;;40.00;25.27;;;;;;;11.53;100.00;101597.50;4959093;28;20038;-77
2021/10/17 00:31:32;;;;;;;38.70;24.98;;;;;;;11.70;100.00;101597.44;4945708;28;20027;-77
2021/10/17 00:34:18;;;;;;;36.90;23.67;;;;;;;11.66;100.00;101596.56;4959409;28;20066;-77
2021/10/17 00:37:04;;;;;;;33.50;22.63;;;;;;;11.04;100.00;101592.59;4959768;28;20030;-76
2021/10/17 00:39:50;;;;;;;36.50;24.20;;;;;;;11.45;100.00;101603.72;4959301;28;20396;-76
2021/10/17 00:42:37;;;;;;;37.17;24.95;;;;;;;11.82;100.00;101598.19;4959973;28;20412;-76
2021/10/17 00:45:29;;;;;;;36.55;23.52;;;;;;;11.90;100.00;101599.00;4959951;28;20170;-76
2021/10/17 00:48:15;;;;;;;43.28;28.08;;;;;;;12.03;100.00;101597.13;4958316;29;20385;-76
2021/10/17 00:51:01;;;;;;;42.25;27.35;;;;;;;11.97;100.00;101589.31;4959814;28;20059;-76
2021/10/17 00:53:47;;;;;;;37.60;24.52;;;;;;;12.01;100.00;101591.91;4944865;29;20027;-77
2021/10/17 00:56:32;;;;;;;45.45;28.85;;;;;;;12.13;100.00;101590.94;4958711;28;20098;-71
2021/10/17 00:59:19;;;;;;;37.70;25.17;;;;;;;12.22;100.00;101593.44;4959683;28;20031;-71
2021/10/17 01:02:05;;;;;;;51.00;29.83;;;;;;;12.13;100.00;101594.41;4959198;28;20024;-71
2021/10/17 01:04:51;;;;;;;51.53;31.48;;;;;;;12.40;100.00;101591.50;4958821;28;20027;-71
2021/10/17 01:07:37;;;;;;;50.53;29.40;;;;;;;12.27;100.00;101587.28;4944372;29;20045;-71
2021/10/17 01:10:23;;;;;;;52.10;28.98;;;;;;;12.35;100.00;101585.44;4943754;29;20062;-72
2021/10/17 01:13:19;;;;;;;37.85;24.45;;;;;;;12.21;100.00;101582.06;4957374;29;20031;-71
2021/10/17 01:16:05;;;;;;;60.88;32.30;;;;;;;11.85;100.00;101585.03;4958980;28;20027;-71
2021/10/17 01:18:50;;;;;;;68.53;31.38;;;;;;;11.95;100.00;101584.09;4943824;29;20139;-71
2021/10/17 01:21:38;;;;;;;76.00;33.55;;;;;;;11.99;100.00;101583.16;4958131;28;20367;-72
2021/10/17 01:24:23;;;;;;;70.28;32.67;;;;;;;11.92;100.00;101592.00;4958567;28;20031;-73
2021/10/17 01:27:09;;;;;;;53.90;31.23;;;;;;;11.94;100.00;101586.72;4956994;28;20467;-72
2021/10/17 01:29:55;;;;;;;41.65;25.73;;;;;;;11.74;100.00;101592.13;4944223;28;20436;-73
2021/10/17 01:32:41;;;;;;;46.60;28.52;;;;;;;11.84;100.00;101593.81;4958559;28;20019;-71
2021/10/17 01:35:27;;;;;;;45.22;28.77;;;;;;;12.21;100.00;101595.19;4958587;28;20412;-71
2021/10/17 01:38:13;;;;;;;40.60;27.23;;;;;;;12.07;100.00;101591.84;4943134;29;20027;-72
2021/10/17 01:40:58;;;;;;;43.25;28.08;;;;;;;12.29;100.00;101597.72;4958912;28;20034;-72
2021/10/17 01:43:44;;;;;;;44.13;28.55;;;;;;;12.15;100.00;101594.41;4957978;28;20456;-72
2021/10/17 01:46:30;;;;;;;43.92;28.80;;;;;;;12.27;100.00;101589.00;4957515;28;20031;-72
2021/10/17 01:49:16;;;;;;;49.17;28.92;;;;;;;12.26;100.00;101598.63;4958364;28;20027;-73
2021/10/17 01:52:03;;;;;;;39.17;25.95;;;;;;;12.24;100.00;101589.91;4958628;28;20031;-72
2021/10/17 01:54:49;;;;;;;38.80;25.10;;;;;;;12.04;100.00;101589.25;4958430;28;20086;-72
2021/10/17 01:57:35;;;;;;;45.42;28.85;;;;;;;12.05;100.00;101598.84;4943020;29;20046;-71
2021/10/17 02:00:21;;;;;;;46.55;29.02;;;;;;;12.46;100.00;101603.72;4958371;28;20321;-71
2021/10/17 02:03:07;;;;;;;36.47;26.95;;;;;;;12.40;100.00;101593.25;4958419;28;20027;-71
2021/10/17 02:05:52;;;;;;;40.53;27.38;;;;;;;12.50;100.00;101592.28;4958318;28;20483;-71
2021/10/17 02:08:38;;;;;;;39.83;26.67;;;;;;;12.11;100.00;101593.56;4957356;28;20023;-73
2021/10/17 02:11:24;;;;;;;36.22;26.35;;;;;;;12.27;100.00;101595.16;4958132;28;20441;-72
2021/10/17 02:14:10;;;;;;;42.97;27.75;;;;;;;12.29;100.00;101595.09;4957463;28;20125;-72
2021/10/17 02:16:55;;;;;;;39.22;26.63;;;;;;;12.22;100.00;101602.19;4957440;28;20035;-72
2021/10/17 02:19:41;;;;;;;43.63;29.08;;;;;;;12.61;100.00;101603.50;4957179;28;20125;-72
2021/10/17 02:22:27;;;;;;;45.53;29.38;;;;;;;12.47;100.00;101595.81;4943125;29;20483;-72
2021/10/17 02:25:13;;;;;;;52.40;33.92;;;;;;;12.26;100.00;101600.41;4956646;28;20353;-72
2021/10/17 02:27:59;;;;;;;48.80;32.35;;;;;;;12.17;100.00;101600.53;4944036;28;20102;-72
2021/10/17 02:30:45;;;;;;;61.55;39.55;;;;;;;11.96;100.00;101606.81;4957376;28;20019;-72
2021/10/17 02:33:31;;;;;;;61.05;39.42;;;;;;;12.37;100.00;101611.66;4941925;29;20031;-72
2021/10/17 02:36:17;;;;;;;70.43;42.50;;;;;;;12.48;100.00;101604.53;4956988;28;20035;-72
2021/10/17 02:39:03;;;;;;;64.95;39.63;;;;;;;12.40;100.00;101612.53;4943131;28;20425;-71
2021/10/17 02:41:49;;;;;;;62.38;39.45;;;;;;;12.45;100.00;101615.09;4956814;28;20050;-72
2021/10/17 02:44:34;;;;;;;66.43;39.55;;;;;;;12.33;100.00;101612.59;4944051;28;20027;-72
2021/10/17 02:47:20;;;;;;;64.97;41.03;;;;;;;12.38;100.00;101618.69;4957596;28;20038;-72
2021/10/17 02:50:06;;;;;;;64.18;39.38;;;;;;;12.36;100.00;101623.06;4956866;28;20027;-72
2021/10/17 02:52:52;;;;;;;72.85;42.28;;;;;;;12.38;100.00;101624.78;4957528;28;20106;-72
2021/10/17 02:55:38;;;;;;;68.03;42.80;;;;;;;11.54;100.00;101622.03;4942760;28;20041;-72
2021/10/17 02:58:23;;;;;;;64.70;40.90;;;;;;;12.10;100.00;101622.47;4942471;29;20106;-72
2021/10/17 03:01:09;;;;;;;68.90;44.05;;;;;;;12.06;100.00;101626.84;4956277;28;20102;-72
2021/10/17 03:03:55;;;;;;;68.82;43.38;;;;;;;12.33;100.00;101633.59;4944151;28;20035;-71
2021/10/17 03:06:41;;;;;;;66.18;41.72;;;;;;;12.25;100.00;101631.06;4956899;28;20035;-72
2021/10/17 03:09:26;;;;;;;71.18;44.72;;;;;;;12.28;100.00;101630.16;4957658;28;20054;-71
2021/10/17 03:12:12;;;;;;;64.25;41.05;;;;;;;12.36;100.00;101630.94;4956298;28;20038;-72
2021/10/17 03:14:58;;;;;;;64.82;41.17;;;;;;;12.36;100.00;101630.94;4956493;28;20368;-72
2021/10/17 03:17:44;;;;;;;62.17;40.33;;;;;;;12.54;100.00;101631.63;4957317;28;20038;-72
2021/10/17 03:20:30;;;;;;;61.35;39.53;;;;;;;12.43;100.00;101632.66;4957645;28;20031;-72
2021/10/17 03:23:15;;;;;;;69.68;42.35;;;;;;;12.38;100.00;101640.56;4957791;28;20423;-72
2021/10/17 03:26:01;;;;;;;64.00;38.90;;;;;;;12.37;100.00;101633.56;4957057;28;20418;-72
2021/10/17 03:28:47;;;;;;;60.45;38.22;;;;;;;12.17;100.00;101638.16;4942904;28;20033;-71
2021/10/17 03:31:36;;;;;;;64.15;39.78;;;;;;;12.53;100.00;101634.28;4957055;28;20185;-72
2021/10/17 03:34:22;;;;;;;66.35;40.60;;;;;;;12.25;100.00;101633.69;4957769;28;20548;-72
2021/10/17 03:37:08;;;;;;;62.72;39.67;;;;;;;11.97;100.00;101637.44;4955859;28;20368;-72
2021/10/17 03:39:54;;;;;;;63.78;41.50;;;;;;;12.42;100.00;101641.41;4957233;28;20036;-73
2021/10/17 03:42:39;;;;;;;61.05;39.53;;;;;;;12.54;100.00;101643.91;4956627;28;20031;-73
2021/10/17 03:45:25;;;;;;;60.53;40.28;;;;;;;12.22;100.00;101652.09;4960639;28;20027;-73
2021/10/17 03:48:11;;;;;;;62.60;40.50;;;;;;;12.35;100.00;101642.34;4945593;29;20389;-73
2021/10/17 03:50:57;;;;;;;56.85;37.80;;;;;;;12.66;100.00;101641.16;4960662;28;20034;-73
2021/10/17 03:53:43;;;;;;;59.95;39.70;;;;;;;12.56;100.00;101647.38;4959615;28;20027;-72
2021/10/17 03:56:28;;;;;;;67.47;43.00;;;;;;;12.66;100.00;101651.69;4959230;28;20398;-71
2021/10/17 03:59:15;;;;;;;57.83;38.10;;;;;;;12.64;100.00;101642.91;4960694;28;20053;-72
2021/10/17 04:02:01;;;;;;;57.28;37.95;;;;;;;12.74;100.00;101636.69;4960477;28;20077;-72
2021/10/17 04:04:47;;;;;;;64.78;38.65;;;;;;;12.30;100.00;101636.28;4945239;29;20023;-72
2021/10/17 04:07:35;;;;;;;59.40;38.17;;;;;;;12.22;100.00;101643.38;4960123;28;20038;-71
2021/10/17 04:10:21;;;;;;;61.78;40.15;;;;;;;12.21;100.00;101653.00;4960169;28;20090;-72
2021/10/17 04:13:07;;;;;;;62.65;39.25;;;;;;;12.63;100.00;101647.31;4959484;28;20110;-72
2021/10/17 04:15:53;;;;;;;55.92;37.25;;;;;;;12.50;100.00;101643.06;4959422;28;20356;-72
2021/10/17 04:18:39;;;;;;;57.40;38.90;;;;;;;12.81;100.00;101643.59;4959136;29;20094;-72
2021/10/17 04:21:24;;;;;;;64.40;41.72;;;;;;;12.77;100.00;101640.13;4959579;28;20349;-72
2021/10/17 04:24:10;;;;;;;57.88;40.28;;;;;;;12.64;100.00;101650.81;4960108;28;20039;-72
2021/10/17 04:26:56;;;;;;;58.00;40.35;;;;;;;12.84;100.00;101648.81;4959872;28;20087;-72
2021/10/17 04:29:42;;;;;;;58.25;40.03;;;;;;;12.88;100.00;101643.50;4960582;28;20023;-72
2021/10/17 04:32:28;;;;;;;64.95;41.55;;;;;;;12.74;100.00;101645.41;4959144;28;20127;-72
2021/10/17 04:35:14;;;;;;;72.00;44.97;;;;;;;12.32;100.00;101648.53;4959740;28;20101;-72
2021/10/17 04:38:00;;;;;;;63.13;39.03;;;;;;;12.48;100.00;101651.84;4959072;28;20062;-72
2021/10/17 04:40:46;;;;;;;63.78;40.03;;;;;;;12.13;100.00;101652.19;4959632;28;20039;-71
2021/10/17 04:43:32;;;;;;;63.85;40.45;;;;;;;12.14;100.00;101656.56;4959003;28;20368;-72
2021/10/17 04:46:18;;;;;;;68.20;41.83;;;;;;;12.49;100.00;101661.47;4959063;28;20401;-72
2021/10/17 04:49:04;;;;;;;60.80;39.22;;;;;;;12.65;100.00;101663.94;4958971;28;20045;-72
2021/10/17 04:51:49;;;;;;;61.50;39.95;;;;;;;12.76;100.00;101659.44;4959469;28;20019;-72
2021/10/17 04:54:35;;;;;;;60.58;39.78;;;;;;;12.89;100.00;101662.78;4958525;28;20114;-72
2021/10/17 04:57:21;;;;;;;68.97;40.75;;;;;;;12.87;100.00;101662.78;4959453;28;20090;-72
2021/10/17 05:00:07;;;;;;;61.28;39.03;;;;;;;12.84;100.00;101660.22;4959177;28;20019;-72
2021/10/17 05:02:53;;;;;;;61.60;38.47;;;;;;;12.88;100.00;101668.94;4958868;28;20023;-73
2021/10/17 05:05:42;;;;;;;63.60;40.72;;;;;;;12.84;100.00;101661.97;4959081;28;20031;-72
2021/10/17 05:08:27;;;;;;;66.25;40.13;;;;;;;12.61;100.00;101675.38;4958922;28;20110;-73
2021/10/17 05:11:13;;;;;;;59.38;37.95;;;;;;;12.87;100.00;101665.41;4959102;28;20046;-73
2021/10/17 05:13:59;;;;;;;61.55;38.58;;;;;;;12.80;100.00;101674.28;4959041;28;20470;-71
2021/10/17 05:16:45;;;;;;;60.00;37.80;;;;;;;12.93;100.00;101680.25;4957845;28;20372;-71
2021/10/17 05:19:30;;;;;;;68.63;39.88;;;;;;;12.83;100.00;101679.50;4957489;28;20531;-71
2021/10/17 05:22:16;;;;;;;63.70;38.60;;;;;;;12.68;100.00;101691.94;4944806;28;20365;-72
2021/10/17 05:25:02;;;;;;;71.50;41.33;;;;;;;12.91;100.00;101695.22;4943638;29;20372;-72
2021/10/17 05:27:48;;;;;;;65.43;40.35;;;;;;;12.94;100.00;101692.56;4945304;28;20382;-72
2021/10/17 05:30:34;;;;;;;72.10;42.28;;;;;;;13.02;100.00;101691.59;4959120;28;20136;-73
2021/10/17 05:33:20;;;;;;;65.85;39.75;;;;;;;13.01;100.00;101686.34;4943653;29;20039;-74
2021/10/17 05:36:06;;;;;;;68.53;40.13;;;;;;;12.39;100.00;101694.88;4958965;28;20027;-74
2021/10/17 05:38:52;;;;;;;62.90;38.17;;;;;;;12.25;100.00;101699.38;4957007;29;20038;-76
2021/10/17 05:41:38;;;;;;;66.10;39.78;;;;;;;12.57;100.00;101702.59;4958750;28;20030;-73
2021/10/17 05:44:23;;;;;;;75.35;41.63;;;;;;;12.84;100.00;101704.94;4943110;29;20042;-71
2021/10/17 05:47:09;;;;;;;64.15;39.33;;;;;;;12.62;100.00;101719.16;4957828;28;20039;-73
2021/10/17 05:49:55;;;;;;;66.25;39.28;;;;;;;12.81;100.00;101714.59;4957715;28;20038;-72
2021/10/17 05:52:41;;;;;;;68.30;40.95;;;;;;;12.73;100.00;101717.31;4957318;28;20333;-72
2021/10/17 05:55:26;;;;;;;59.78;37.80;;;;;;;12.88;100.00;101719.78;4958391;28;20089;-72
2021/10/17 05:58:12;;;;;;;64.45;38.35;;;;;;;12.92;100.00;101724.13;4957561;28;20027;-72
2021/10/17 06:00:58;;;;;;;62.28;38.80;;;;;;;13.27;100.00;101726.38;4957296;28;20062;-72
2021/10/17 06:03:44;;;;;;;60.83;37.65;;;;;;;13.27;100.00;101726.38;4958641;28;20023;-72
2021/10/17 06:06:29;;;;;;;57.40;37.38;;;;;;;13.26;100.00;101728.13;4957953;28;20392;-72
2021/10/17 06:09:15;;;;;;;58.58;37.53;;;;;;;12.99;100.00;101736.34;4957912;28;20047;-72
2021/10/17 06:12:02;;;;;;;66.32;39.50;;;;;;;13.11;100.00;101738.81;4957610;28;20035;-72
2021/10/17 06:14:48;;;;;;;70.75;41.05;;;;;;;12.95;100.00;101731.97;4956790;28;20055;-72
2021/10/17 06:17:34;;;;;;;53.00;36.20;;;;;;;13.23;100.00;101737.84;4957924;28;20082;-72
2021/10/17 06:20:20;;;;;;;54.95;35.78;;;;;;;13.02;100.00;101746.84;4957748;28;20159;-71
2021/10/17 06:23:05;;;;;;;56.67;35.85;;;;;;;12.77;100.00;101752.34;4958200;28;20023;-71
2021/10/17 06:25:51;;;;;;;52.40;34.47;;;;;;;12.94;100.00;101759.16;4957583;28;20023;-71
2021/10/17 06:28:37;;;;;;;53.85;35.38;;;;;;;12.80;100.00;101755.81;4957697;28;20034;-71
2021/10/17 06:31:23;;;;;;;58.40;38.20;;;;;;;12.85;100.00;101758.38;4957699;28;20125;-71
2021/10/17 06:34:08;;;;;;;65.78;40.10;;;;;;;13.08;100.00;101757.31;4958044;28;20469;-72
2021/10/17 06:36:54;;;;;;;56.97;38.42;;;;;;;13.08;100.00;101759.06;4957384;28;20111;-72
2021/10/17 06:39:40;;;;;;;56.55;37.22;;;;;;;13.11;100.00;101765.16;4958070;28;20028;-72
2021/10/17 06:42:26;;;;;;;58.42;37.88;;;;;;;12.95;100.00;101763.53;4942819;28;20341;-72
2021/10/17 06:45:11;;;;;;;61.90;38.42;;;;;;;13.01;100.00;101774.03;4956724;28;20023;-72
2021/10/17 06:47:57;;;;;;;57.03;37.05;;;;;;;13.06;100.00;101771.38;4957630;28;20046;-72
2021/10/17 06:50:43;;;;;;;71.43;40.60;;;;;;;12.92;100.00;101775.84;4957704;28;20379;-72
2021/10/17 06:53:29;;;;;;;60.83;37.70;;;;;;;13.08;100.00;101775.72;4955179;29;20170;-72
2021/10/17 06:56:14;;;;;;;61.05;37.53;;;;;;;12.98;100.00;101779.31;4956053;28;20062;-72
2021/10/17 06:59:00;;;;;;;57.03;36.47;;;;;;;12.58;100.00;101779.69;4956232;28;20035;-72
2021/10/17 07:01:46;;;;;;;55.95;35.20;;;;;;;13.05;100.00;101788.03;4956938;28;20031;-72
2021/10/17 07:04:32;;;;;;;59.80;37.28;;;;;;;13.17;100.00;101786.13;4957850;28;20444;-71
2021/10/17 07:07:18;;;;;;;55.70;36.10;;;;;;;13.39;100.00;101787.63;4956282;28;20388;-71
2021/10/17 07:10:04;;;;;;;57.05;35.65;;;;;;;13.43;100.00;101785.84;4956324;28;20039;-75
2021/10/17 07:12:49;;;;;;;59.92;37.05;;;;;;;13.24;100.00;101777.28;4955418;28;20031;-72
2021/10/17 07:15:35;;;;;;;58.65;37.15;;;;;;;12.99;100.00;101786.31;4957062;28;20034;-73
2021/10/17 07:18:21;;;;;;;52.28;34.85;;;;;;;13.13;100.00;101789.69;4958068;28;20460;-72
2021/10/17 07:21:07;;;;;;;48.03;31.48;;;;;;;13.40;100.00;101788.50;4946282;29;20113;-73
2021/10/17 07:23:53;;;;;;;53.70;32.50;;;;;;;13.27;100.00;101790.41;4945968;29;20479;-72
2021/10/17 07:26:38;;;;;;;54.80;33.90;;;;;;;13.35;100.00;101795.59;4960263;28;20030;-73
2021/10/17 07:29:24;;;;;;;51.47;32.72;;;;;;;13.15;100.00;101794.94;4961345;28;20320;-73
2021/10/17 07:32:10;;;;;;;58.47;35.58;;;;;;;13.26;100.00;101793.94;4959750;28;20141;-71
2021/10/17 07:34:56;;;;;;;54.10;32.97;;;;;;;13.50;100.00;101798.03;4947292;28;20031;-72
2021/10/17 07:37:42;;;;;;;54.20;35.58;;;;;;;13.39;100.00;101792.03;4945521;29;20035;-73
2021/10/17 07:40:27;;;;;;;50.97;34.38;;;;;;;13.43;100.00;101799.00;4960168;28;20035;-72
2021/10/17 07:43:13;;;;;;;49.45;33.40;;;;;;;13.70;100.00;101796.91;4960056;28;20031;-72
2021/10/17 07:46:02;;;;;;;57.78;35.72;;;;;;;13.41;100.00;101796.38;4945706;29;20031;-72
2021/10/17 07:48:47;;;;;;;50.20;33.72;;;;;;;13.61;100.00;101797.03;4945926;28;20510;-71
2021/10/17 07:51:33;;;;;;;55.40;34.42;;;;;;;13.50;100.00;101801.53;4959956;28;20082;-71
2021/10/17 07:54:19;;;;;;;49.72;32.67;;;;;;;13.04;100.00;101805.59;4960808;28;20468;-72
2021/10/17 07:57:06;;;;;;;51.10;33.55;;;;;;;13.40;100.00;101812.19;4945432;29;20050;-72
2021/10/17 07:59:52;;;;;;;51.22;33.05;;;;;;;13.32;100.00;101811.41;4945706;28;20039;-72
2021/10/17 08:02:37;;;;;;;55.70;34.58;;;;;;;13.65;100.00;101806.63;4946718;28;20038;-74
2021/10/17 08:05:23;;;;;;;48.95;32.80;;;;;;;13.56;100.00;101817.28;4958589;28;20038;-73
2021/10/17 08:08:09;;;;;;;52.10;34.03;;;;;;;13.40;100.00;101807.81;4945027;29;20035;-74
2021/10/17 08:10:55;;;;;;;48.83;32.40;;;;;;;13.48;100.00;101816.50;4946903;28;20358;-72
2021/10/17 08:13:40;;;;;;;54.42;34.67;;;;;;;13.49;100.00;101817.34;4959012;28;20031;-75
2021/10/17 08:16:26;;;;;;;58.58;36.83;;;;;;;13.61;100.00;101818.09;4959798;28;20027;-72
2021/10/17 08:19:12;;;;;;;54.55;33.85;;;;;;;13.41;100.00;101813.94;4959817;28;20114;-75
2021/10/17 08:21:58;;;;;;;55.97;36.25;;;;;;;13.26;100.00;101817.63;4945760;28;20110;-72
2021/10/17 08:24:44;;;;;;;48.63;33.65;;;;;;;13.62;100.00;101822.44;4959309;28;20456;-72
2021/10/17 08:27:30;;;;;;;58.63;36.72;;;;;;;13.56;100.00;101819.91;4960502;28;20436;-73
2021/10/17 08:30:16;;;;;;;49.28;33.28;;;;;;;13.45;100.00;101819.16;4957620;28;20019;-72
2021/10/17 08:33:02;;;;;;;53.60;35.30;;;;;;;13.41;100.00;101825.34;4960173;28;20035;-72
2021/10/17 08:35:48;;;;;;;53.55;35.67;;;;;;;13.58;100.00;101817.22;4959870;28;20116;-74
2021/10/17 08:38:34;;;;;;;53.85;35.78;;;;;;;13.31;100.00;101817.56;4958462;28;20121;-72
2021/10/17 08:41:20;;;;;;;59.58;37.40;;;;;;;13.36;100.00;101823.66;4944447;29;20375;-73
2021/10/17 08:44:06;;;;;;;51.67;35.78;;;;;;;13.52;100.00;101825.22;4945891;28;20043;-72
2021/10/17 08:46:52;;;;;;;61.58;36.88;;;;;;;13.74;100.00;101814.41;4959207;28;20039;-73
2021/10/17 08:49:38;;;;;;;53.70;35.10;;;;;;;14.14;100.00;101809.44;4944892;28;20106;-72
2021/10/17 08:52:23;;;;;;;54.03;35.28;;;;;;;14.19;100.00;101812.91;4959968;28;20037;-72
2021/10/17 08:55:11;;;;;;;50.22;33.67;;;;;;;13.73;100.00;101812.66;4944292;29;20423;-72
2021/10/17 08:57:57;;;;;;;52.47;35.83;;;;;;;13.61;100.00;101823.34;4959580;28;20121;-72
2021/10/17 09:00:43;;;;;;;63.40;38.13;;;;;;;14.02;100.00;101815.78;4958947;28;20345;-73
2021/10/17 09:03:33;;;;;;;55.47;35.58;;;;;;;13.62;100.00;101822.44;4959220;28;20085;-73
2021/10/17 09:06:25;;;;;;;49.63;34.28;;;;;;;13.41;100.00;101817.44;4958021;28;20030;-73
2021/10/17 09:09:13;;;;;;;56.58;37.55;;;;;;;13.41;100.00;101819.19;4959339;28;20053;-71
2021/10/17 09:11:59;;;;;;;50.92;34.25;;;;;;;13.52;100.00;101823.47;4944456;29;20031;-72
2021/10/17 09:14:44;;;;;;;52.28;34.15;;;;;;;13.20;100.00;101825.59;4943755;29;20023;-72
2021/10/17 09:17:30;;;;;;;52.63;35.58;;;;;;;13.22;100.00;101828.22;4958479;28;20035;-73
2021/10/17 09:20:16;;;;;;;58.55;37.05;;;;;;;13.31;100.00;101818.44;4944918;28;20027;-73
2021/10/17 09:23:03;;;;;;;51.75;33.83;;;;;;;13.23;100.00;101829.94;4944125;29;20135;-73
2021/10/17 09:25:50;;;;;;;58.83;37.25;;;;;;;13.33;100.00;101827.19;4943465;29;20051;-73
2021/10/17 09:28:38;;;;;;;51.55;35.03;;;;;;;13.55;100.00;101826.03;4958737;28;20019;-72
2021/10/17 09:31:24;;;;;;;47.17;34.17;;;;;;;13.81;100.00;101818.69;4943962;29;20035;-72
2021/10/17 09:34:10;;;;;;;55.88;36.40;;;;;;;13.75;100.00;101821.41;4957947;28;20118;-73
2021/10/17 09:37:13;;;;;;;51.67;33.67;;;;;;;13.16;100.00;101828.25;4958839;28;20057;-72
2021/10/17 09:40:20;;;;;;;49.35;34.70;;;;;;;13.39;100.00;101835.00;4943906;28;20464;-72
2021/10/17 09:43:14;;;;;;;53.47;35.40;;;;;;;13.65;100.00;101826.81;4957229;28;20035;-73
2021/10/17 09:46:12;;;;;;;46.22;33.17;;;;;;;13.69;100.00;101832.03;4957721;28;20038;-73
2021/10/17 09:48:58;;;;;;;51.30;34.78;;;;;;;13.94;100.00;101816.75;4958555;28;20047;-72
2021/10/17 09:51:44;;;;;;;49.60;33.42;;;;;;;14.24;100.00;101819.84;4943644;29;20031;-73
2021/10/17 09:54:30;;;;;;;52.22;33.17;;;;;;;13.66;100.00;101823.28;4957365;28;20027;-72
2021/10/17 09:57:17;;;;;;;46.67;30.70;;;;;;;13.33;100.00;101821.94;4958319;28;20371;-72
2021/10/17 10:00:04;;;;;;;44.85;32.03;;;;;;;13.94;100.00;101828.19;4958134;28;20031;-72
2021/10/17 10:02:52;;;;;;;42.65;30.30;;;;;;;14.11;100.00;101823.53;4957497;28;20456;-73
2021/10/17 10:05:40;;;;;;;48.72;32.38;;;;;;;13.96;100.00;101818.50;4957401;29;20046;-72
2021/10/17 10:08:26;;;;;;;47.30;31.55;;;;;;;13.75;100.00;101816.13;4957364;28;20368;-72
2021/10/17 10:11:14;;;;;;;45.28;31.83;;;;;;;14.18;100.00;101809.38;4957070;29;20039;-72
2021/10/17 10:14:03;;;;;;;46.72;33.00;;;;;;;14.79;100.00;101807.53;4957270;28;20038;-72
2021/10/17 10:16:53;;;;;;;42.80;30.35;;;;;;;14.65;100.00;101803.38;4958102;28;20045;-72
2021/10/17 10:19:39;;;;;;;44.63;30.05;;;;;;;14.53;100.00;101799.19;4956750;28;20038;-73
2021/10/17 10:22:28;;;;;;;40.13;28.48;;;;;;;14.54;100.00;101790.38;4957961;28;20375;-72
2021/10/17 10:25:16;;;;;;;37.00;27.00;;;;;;;14.50;100.00;101793.97;4942706;29;20468;-74
2021/10/17 10:28:05;;;;;;;38.80;26.63;;;;;;;14.28;100.00;101799.59;4956890;28;20038;-74
2021/10/17 10:30:51;;;;;;;40.17;28.00;;;;;;;14.88;100.00;101796.81;4957493;28;20028;-72
2021/10/17 10:33:42;;;;;;;38.22;27.75;;;;;;;15.03;100.00;101789.53;4957880;28;20360;-72
2021/10/17 10:36:44;;;;;;;40.80;27.05;;;;;;;15.35;100.00;101792.47;4943027;29;20349;-72
2021/10/17 10:39:33;;;;;;;37.67;25.48;;;;;;;15.31;100.00;101785.47;4942745;29;20234;-72
2021/10/17 10:42:19;;;;;;;32.35;23.33;;;;;;;14.70;100.00;101786.59;4943364;28;20028;-72
2021/10/17 10:45:21;;;;;;;30.40;21.98;;;;;;;14.97;100.00;101787.88;4956951;28;20038;-72
2021/10/17 10:48:12;;;;;;;35.42;23.70;;;;;;;14.86;100.00;101778.41;4956273;29;20046;-74
2021/10/17 10:50:58;;;;;;;34.05;22.52;;;;;;;14.77;100.00;101777.69;4955851;29;20401;-73
2021/10/17 10:53:54;;;;;;;29.25;21.60;;;;;;;15.39;100.00;101773.84;4955852;28;20038;-72
2021/10/17 10:56:43;;;;;;;32.15;22.08;;;;;;;15.47;100.00;101774.56;4956643;28;20030;-72
2021/10/17 11:00:06;;;;;;;32.03;22.05;;;;;;;15.20;100.00;101777.75;4956683;28;20034;-72
2021/10/17 11:03:16;;;;;;;30.48;21.58;;;;;;;14.90;100.00;101774.81;4942712;29;20050;-71
2021/10/17 11:06:05;;;;;;;29.08;21.63;;;;;;;14.56;100.00;101770.13;4957377;28;20452;-72
2021/10/17 11:09:22;;;;;;;27.63;21.02;;;;;;;14.69;100.00;101771.66;4957618;28;20051;-72
2021/10/17 11:12:09;;;;;;;32.22;22.48;;;;;;;15.34;100.00;101777.50;4956711;28;20074;-74
2021/10/17 11:15:00;;;;;;;29.20;21.83;;;;;;;14.98;100.00;101767.63;4955976;28;20031;-73
2021/10/17 11:17:55;;;;;;;34.10;21.83;;;;;;;14.69;100.00;101763.75;4957720;28;20424;-74
2021/10/17 11:20:43;;;;;;;33.42;23.35;;;;;;;14.69;100.00;101769.03;4957252;28;20372;-74
2021/10/17 11:23:32;;;;;;;28.10;21.27;;;;;;;15.31;100.00;101756.41;4943621;28;20027;-73
2021/10/17 11:26:17;;;;;;;28.20;21.63;;;;;;;14.80;100.00;101759.13;4955861;29;20043;-72
2021/10/17 11:29:03;;;;;;;30.13;21.10;;;;;;;14.83;100.00;101755.56;4942551;29;20364;-73
2021/10/17 11:31:49;;;;;;;25.90;20.05;;;;;;;14.63;100.00;101758.56;4957007;28;20026;-72
2021/10/17 11:34:35;;;;;;;27.17;21.00;;;;;;;14.52;100.00;101752.59;4956602;28;20049;-73
2021/10/17 11:37:22;;;;;;;25.20;19.48;;;;;;;14.83;100.00;101745.00;4957115;28;20031;-72
2021/10/17 11:40:10;;;;;;;27.92;20.23;;;;;;;15.08;100.00;101753.34;4957210;28;20099;-73
2021/10/17 11:42:58;;;;;;;28.10;20.75;;;;;;;14.90;100.00;101754.56;4955905;28;20031;-73
2021/10/17 11:45:45;;;;;;;32.55;21.13;;;;;;;14.48;100.00;101758.81;4956291;29;20035;-73
2021/10/17 11:48:33;;;;;;;26.85;20.50;;;;;;;14.33;100.00;101767.00;4955803;28;20050;-72
2021/10/17 11:51:22;;;;;;;30.73;20.27;;;;;;;14.39;100.00;101764.25;4957392;28;20040;-72
2021/10/17 11:54:08;;;;;;;31.13;21.00;;;;;;;14.49;100.00;101757.06;4957480;28;20464;-74
2021/10/17 11:56:57;;;;;;;30.98;22.85;;;;;;;14.59;100.00;101759.53;4956739;28;20372;-74
2021/10/17 12:00:03;;;;;;;35.03;24.10;;;;;;;14.35;100.00;101762.56;4955890;28;20430;-73
2021/10/17 12:02:50;;;;;;;32.75;23.45;;;;;;;14.42;100.00;101766.84;4956372;28;20027;-74
2021/10/17 12:05:42;;;;;;;32.63;23.17;;;;;;;14.54;100.00;101763.13;4959537;28;20356;-72
2021/10/17 12:08:31;;;;;;;33.35;23.38;;;;;;;14.88;100.00;101761.66;4945527;28;20023;-72
2021/10/17 12:11:17;;;;;;;29.85;21.38;;;;;;;14.98;100.00;101765.00;4945814;28;20126;-72
2021/10/17 12:14:03;;;;;;;31.17;22.17;;;;;;;14.95;100.00;101754.50;4959560;28;20042;-72
2021/10/17 12:16:54;;;;;;;30.77;23.40;;;;;;;14.97;100.00;101756.19;4959158;28;20035;-72
2021/10/17 12:19:40;;;;;;;30.08;21.45;;;;;;;14.71;100.00;101742.63;4945249;28;20090;-72
2021/10/17 12:22:26;;;;;;;27.48;20.02;;;;;;;14.63;100.00;101748.03;4960201;28;20360;-72
2021/10/17 12:25:14;;;;;;;29.70;20.40;;;;;;;14.37;100.00;101744.09;4959227;28;20031;-73
2021/10/17 12:28:00;;;;;;;26.25;19.52;;;;;;;14.39;100.00;101739.69;4959882;28;20039;-71
2021/10/17 12:30:49;;;;;;;24.77;19.88;;;;;;;14.51;100.00;101742.97;4959719;28;20082;-73